Time;durP1;ratioP1;P1;durP2;ratioP2;P2;SDS_P1;SDS_P2;PMS_P1;PMS_P2;Temp;Humidity;BMP_temperature;BMP_pressure;BME280_temperature;BME280_humidity;BME280_pressure;Samples;Min_cycle;Max_cycle;Signal;HPM_P1;HPM_P2
2022/11/15 00:01:39;;;;;;;90.30;36.33;;;;;;;-141.97;98.63;47749.72;5017848;28;20189;-89
2022/11/15 00:04:05;;;;;;;82.43;36.40;;;;;;;-141.97;98.95;47776.63;5012618;28;20180;-89
2022/11/15 00:06:31;;;;;;;86.33;36.70;;;;;;;-141.97;99.05;47761.25;5036091;28;20229;-86
2022/11/15 00:09:00;;;;;;;84.67;37.10;;;;;;;-141.97;98.90;47757.41;5029381;28;20416;-89
2022/11/15 00:11:26;;;;;;;90.57;36.97;;;;;;;-141.97;98.49;47653.63;5028904;28;20175;-89
2022/11/15 00:13:55;;;;;;;88.87;37.13;;;;;;;-141.97;98.46;47843.91;5022583;28;20924;-88
2022/11/15 00:16:20;;;;;;;85.43;36.43;;;;;;;-141.97;98.30;47934.25;5017550;28;20186;-88
2022/11/15 00:18:45;;;;;;;82.20;36.47;;;;;;;-141.97;98.30;47872.75;5013919;28;20416;-89
2022/11/15 00:21:13;;;;;;;82.17;35.70;;;;;;;-141.97;97.08;47855.44;5013616;28;20248;-90
2022/11/15 00:23:39;;;;;;;81.30;36.23;;;;;;;-141.97;96.61;47768.94;5013650;28;20229;-90
2022/11/15 00:26:04;;;;;;;81.53;35.87;;;;;;;-141.97;96.78;47776.63;4996306;28;20446;-90
2022/11/15 00:28:30;;;;;;;82.27;33.30;;;;;;;-141.97;96.71;47742.03;5011439;28;20181;-90
2022/11/15 00:31:04;;;;;;;85.97;34.83;;;;;;;-141.97;97.21;47659.38;5029795;28;20240;-90
2022/11/15 00:33:30;;;;;;;81.13;33.50;;;;;;;-141.97;97.88;47853.53;5025260;28;20196;-89
2022/11/15 00:36:02;;;;;;;81.87;34.50;;;;;;;-141.97;97.30;47843.91;5001377;28;20420;-89
2022/11/15 00:38:34;;;;;;;76.07;33.87;;;;;;;-141.97;96.39;47788.19;5011415;28;20432;-89
2022/11/15 00:41:01;;;;;;;76.33;33.47;;;;;;;-141.97;96.88;47863.13;5029478;28;21002;-90
2022/11/15 00:43:26;;;;;;;73.10;32.00;;;;;;;-141.97;96.81;47872.75;5016277;28;20413;-89
2022/11/15 00:45:52;;;;;;;77.40;33.70;;;;;;;-141.97;95.97;47665.16;5015688;28;20430;-90
2022/11/15 00:48:17;;;;;;;74.53;33.00;;;;;;;-141.97;95.14;47836.22;5013174;28;20559;-90
2022/11/15 00:50:43;;;;;;;74.47;33.23;;;;;;;-141.97;94.22;47784.34;5002985;28;20178;-90
2022/11/15 00:53:08;;;;;;;64.87;30.17;;;;;;;-141.97;93.40;47849.69;5034699;28;20659;-90
2022/11/15 00:55:34;;;;;;;67.53;30.37;;;;;;;-141.97;93.18;47688.22;5026130;28;20170;-89
2022/11/15 00:57:59;;;;;;;65.17;30.13;;;;;;;-141.97;93.39;47834.31;5038060;28;20173;-89
2022/11/15 01:00:24;;;;;;;66.90;30.43;;;;;;;-141.97;93.17;47834.31;5055132;28;20269;-89
2022/11/15 01:02:50;;;;;;;68.33;30.53;;;;;;;-141.97;92.48;47709.38;5027832;28;20174;-88
2022/11/15 01:05:15;;;;;;;64.93;30.00;;;;;;;-141.97;92.15;47872.75;5021579;28;20305;-89
2022/11/15 01:07:41;;;;;;;69.40;31.70;;;;;;;-141.97;92.23;47876.59;4998175;28;20309;-88
2022/11/15 01:10:07;;;;;;;70.93;32.50;;;;;;;-141.97;91.85;47674.78;5014703;28;20166;-89
2022/11/15 01:12:33;;;;;;;76.77;33.03;;;;;;;-141.97;91.47;47805.47;5014232;28;20179;-89
2022/11/15 01:14:58;;;;;;;71.20;32.37;;;;;;;-141.97;91.49;47790.09;5009737;28;20435;-89
2022/11/15 01:17:28;;;;;;;67.50;31.10;;;;;;;-141.97;91.21;47936.19;5014111;28;20181;-90
2022/11/15 01:19:53;;;;;;;74.73;31.80;;;;;;;-141.97;91.08;47863.13;5037666;28;20189;-90
2022/11/15 01:22:19;;;;;;;63.07;29.73;;;;;;;-141.97;90.50;47749.72;5018083;28;20466;-89
2022/11/15 01:24:44;;;;;;;70.43;31.80;;;;;;;-141.97;90.95;47778.56;5020047;28;20172;-89
2022/11/15 01:27:10;;;;;;;67.03;31.60;;;;;;;-141.97;90.55;47718.97;5001993;28;20181;-89
2022/11/15 01:29:35;;;;;;;68.37;31.13;;;;;;;-141.97;90.92;47792.03;5027499;28;20139;-89
2022/11/15 01:32:01;;;;;;;65.37;30.23;;;;;;;-141.97;90.74;47686.31;5028926;28;20212;-90
2022/11/15 01:34:26;;;;;;;68.27;30.33;;;;;;;-141.97;90.77;47824.69;5014710;28;20175;-91
2022/11/15 01:36:52;;;;;;;66.47;30.23;;;;;;;-141.97;90.86;47815.09;5010730;28;20329;-89
2022/11/15 01:39:17;;;;;;;68.00;29.60;;;;;;;-141.97;91.38;47707.44;5022007;28;20195;-90
2022/11/15 01:41:43;;;;;;;64.93;29.33;;;;;;;-141.97;91.30;47817.00;5028654;28;20217;-90
2022/11/15 01:44:31;;;;;;;67.83;30.80;;;;;;;-141.97;91.99;47834.31;5031185;28;20681;-89
2022/11/15 01:46:59;;;;;;;65.60;29.37;;;;;;;-141.97;92.23;47870.81;5010797;28;20398;-91
2022/11/15 01:49:28;;;;;;;66.13;30.37;;;;;;;-141.97;91.32;47788.19;5022980;28;20418;-90
2022/11/15 01:51:54;;;;;;;61.30;29.30;;;;;;;-141.97;91.06;47926.56;5083616;23;20244;-89
2022/11/15 01:54:22;;;;;;;62.37;29.77;;;;;;;-141.97;90.88;47753.56;4972859;28;20707;-89
2022/11/15 01:57:01;;;;;;;64.50;28.37;;;;;;;-141.97;90.92;47767.03;4962065;28;20432;-90
2022/11/15 01:59:27;;;;;;;64.30;29.53;;;;;;;-141.97;90.75;47872.75;4966424;28;20474;-89
2022/11/15 02:01:53;;;;;;;62.63;29.10;;;;;;;-141.97;90.64;47936.19;4956628;29;20252;-89
2022/11/15 02:04:24;;;;;;;65.67;29.77;;;;;;;-141.97;90.26;47811.25;4955734;29;20565;-88
2022/11/15 02:06:50;;;;;;;65.47;29.27;;;;;;;-141.97;90.31;47888.13;4958884;28;20748;-89
2022/11/15 02:09:16;;;;;;;63.43;28.90;;;;;;;-141.97;89.58;47799.72;4954950;29;20460;-89
2022/11/15 02:11:43;;;;;;;63.90;28.40;;;;;;;-141.97;89.44;47843.91;4957895;28;20255;-89
2022/11/15 02:14:11;;;;;;;60.07;27.87;;;;;;;-141.97;89.17;47863.13;4976076;28;20470;-89
2022/11/15 02:16:48;;;;;;;58.90;27.10;;;;;;;-141.97;88.90;47905.44;4975277;28;20267;-89
2022/11/15 02:19:31;;;;;;;59.13;27.60;;;;;;;-141.97;88.80;47845.84;4954785;29;20664;-89
2022/11/15 02:22:34;;;;;;;60.70;27.70;;;;;;;-141.97;89.26;47826.63;4977940;28;20526;-89
2022/11/15 02:25:23;;;;;;;57.73;27.43;;;;;;;-141.97;88.85;47863.13;4974698;28;20184;-89
2022/11/15 02:28:10;;;;;;;60.37;27.40;;;;;;;-141.97;88.67;47830.47;4979844;28;20199;-89
2022/11/15 02:30:49;;;;;;;62.33;27.93;;;;;;;-141.97;88.62;47788.19;4969604;28;20252;-89
2022/11/15 02:33:40;;;;;;;60.50;27.33;;;;;;;-141.97;88.66;47840.06;4955162;28;20803;-85
2022/11/15 02:36:14;;;;;;;61.40;27.10;;;;;;;-141.97;88.40;47797.78;4958053;28;20199;-85
2022/11/15 02:38:57;;;;;;;59.30;27.00;;;;;;;-141.97;88.89;47840.06;4957880;28;20567;-85
2022/11/15 02:41:30;;;;;;;54.80;26.20;;;;;;;-141.97;89.35;47799.72;4952942;28;20428;-87
2022/11/15 02:44:12;;;;;;;59.17;26.60;;;;;;;-141.97;90.65;47849.69;4954091;29;20408;-86
2022/11/15 02:49:32;;;;;;;65.20;26.87;;;;;;;-141.97;91.07;47920.81;4955801;28;20419;-87
2022/11/15 02:51:57;;;;;;;58.53;27.70;;;;;;;-141.97;91.82;47926.56;4971863;28;20472;-86
2022/11/15 02:54:32;;;;;;;59.10;27.27;;;;;;;-141.97;91.46;47805.47;4971564;28;20506;-86
2022/11/15 02:57:04;;;;;;;62.23;28.23;;;;;;;-141.97;91.32;47815.09;4954149;28;20671;-86
2022/11/15 02:59:36;;;;;;;65.30;30.13;;;;;;;-141.97;90.50;47834.31;4936840;28;20474;-87
2022/11/15 03:02:43;;;;;;;66.63;29.57;;;;;;;-141.97;90.25;47820.84;4936724;29;20181;-87
2022/11/15 03:05:24;;;;;;;63.80;28.90;;;;;;;-141.97;90.14;47847.75;4950570;28;20192;-87
2022/11/15 03:08:08;;;;;;;64.60;27.77;;;;;;;-141.97;89.89;47811.25;4935282;29;20898;-87
2022/11/15 03:10:50;;;;;;;64.53;28.77;;;;;;;-141.97;90.11;47813.16;4951265;29;20196;-86
2022/11/15 03:13:27;;;;;;;68.37;29.33;;;;;;;-141.97;90.71;47861.22;4932577;29;20499;-86
2022/11/15 03:16:07;;;;;;;63.03;26.80;;;;;;;-141.97;90.65;47747.81;4941163;29;20436;-86
2022/11/15 03:18:41;;;;;;;71.47;28.00;;;;;;;-141.97;90.63;47828.53;4926531;29;20429;-87
2022/11/15 03:21:11;;;;;;;94.73;35.07;;;;;;;-141.97;90.49;47722.81;4949344;29;20463;-87
2022/11/15 03:23:38;;;;;;;66.83;29.57;;;;;;;-141.97;90.43;47805.47;4935199;29;20500;-87
2022/11/15 03:26:07;;;;;;;59.37;27.27;;;;;;;-141.97;89.73;47792.03;4951466;29;20184;-87
2022/11/15 03:29:03;;;;;;;60.40;28.07;;;;;;;-141.97;89.20;47695.91;4949873;29;20466;-87
2022/11/15 03:31:47;;;;;;;62.40;27.87;;;;;;;-141.97;89.08;47699.75;4962404;29;20189;-86
2022/11/15 03:34:25;;;;;;;60.03;27.43;;;;;;;-141.97;88.57;47803.56;4958358;29;20241;-85
2022/11/15 03:36:51;;;;;;;55.87;27.57;;;;;;;-141.97;88.54;47817.00;4956228;29;20216;-87
2022/11/15 03:39:17;;;;;;;60.77;28.93;;;;;;;-141.97;88.46;47882.38;4933417;29;20235;-87
2022/11/15 03:42:15;;;;;;;66.50;30.30;;;;;;;-141.97;88.66;47784.34;4957983;28;20978;-87
2022/11/15 03:44:56;;;;;;;59.57;27.20;;;;;;;-141.97;88.40;47820.84;4936142;28;22518;-87
2022/11/15 03:47:27;;;;;;;64.60;29.80;;;;;;;-141.97;88.73;47838.16;4940966;28;20176;-86
2022/11/15 03:49:58;;;;;;;65.53;29.93;;;;;;;-141.97;88.74;47768.94;4972256;28;20238;-86
2022/11/15 03:52:23;;;;;;;110.67;45.53;;;;;;;-141.97;89.04;47768.94;4970770;28;20251;-86
2022/11/15 03:54:55;;;;;;;89.80;41.80;;;;;;;-141.97;90.14;47772.78;4970795;28;20218;-87
2022/11/15 03:57:21;;;;;;;74.80;35.83;;;;;;;-141.97;90.28;47780.47;4969060;28;20235;-86
2022/11/15 03:59:46;;;;;;;60.77;27.63;;;;;;;-141.97;90.36;47853.53;4953005;28;20200;-86
2022/11/15 04:02:13;;;;;;;64.77;27.80;;;;;;;-141.97;91.57;47811.25;4953075;29;20487;-87
2022/11/15 04:04:39;;;;;;;63.07;27.70;;;;;;;-141.97;92.27;47838.16;4954102;28;20659;-87
2022/11/15 04:07:04;;;;;;;62.00;28.27;;;;;;;-141.97;92.32;47694.00;4968331;28;20423;-87
2022/11/15 04:09:30;;;;;;;102.57;47.13;;;;;;;-141.97;92.70;47913.13;4955134;28;20174;-88
2022/11/15 04:11:55;;;;;;;84.10;39.50;;;;;;;-141.97;93.20;47738.19;4971029;28;20187;-87
2022/11/15 04:14:21;;;;;;;82.67;38.73;;;;;;;-141.97;92.59;47745.88;4974214;28;20226;-87
2022/11/15 04:16:46;;;;;;;81.00;36.30;;;;;;;-141.97;92.53;47718.97;4965528;28;20533;-87
2022/11/15 04:24:39;;;;;;;59.90;29.17;;;;;;;-141.97;91.34;47901.59;4957257;28;20407;-88
2022/11/15 04:27:05;;;;;;;65.23;28.47;;;;;;;-141.97;91.55;47757.41;4972016;28;20425;-88
2022/11/15 04:29:36;;;;;;;63.43;29.13;;;;;;;-141.97;91.32;47803.56;4972246;28;20214;-88
2022/11/15 04:32:03;;;;;;;65.83;27.77;;;;;;;-141.97;91.28;47784.34;4974309;28;20579;-89
2022/11/15 04:34:29;;;;;;;62.80;29.90;;;;;;;-141.97;92.36;47795.88;4993613;28;20985;-89
2022/11/15 04:37:13;;;;;;;67.57;32.53;;;;;;;-141.97;93.16;47807.41;4974520;28;20625;-88
2022/11/15 04:39:43;;;;;;;89.47;41.83;;;;;;;-141.97;93.05;47851.59;4956123;28;20212;-88
2022/11/15 04:42:09;;;;;;;93.93;43.87;;;;;;;-141.97;92.74;47836.22;4976536;28;20414;-89
2022/11/15 04:44:35;;;;;;;76.97;34.90;;;;;;;-141.97;92.16;47801.63;4956712;28;20427;-89
2022/11/15 04:47:01;;;;;;;63.77;30.03;;;;;;;-141.97;92.65;47811.25;4959958;28;20423;-89
2022/11/15 04:49:26;;;;;;;81.57;37.80;;;;;;;-141.97;92.50;47695.91;4974652;28;20215;-89
2022/11/15 04:51:51;;;;;;;93.70;42.03;;;;;;;-141.97;92.49;47807.41;4976177;28;20549;-88
2022/11/15 04:54:17;;;;;;;95.03;39.60;;;;;;;-141.97;91.92;47759.34;4976372;28;20195;-88
2022/11/15 04:56:42;;;;;;;63.40;28.90;;;;;;;-141.97;92.06;47715.13;4977515;28;20173;-87
2022/11/15 04:59:08;;;;;;;62.90;28.10;;;;;;;-141.97;91.92;47820.84;4957684;28;20188;-88
2022/11/15 05:01:33;;;;;;;55.40;26.17;;;;;;;-141.97;91.43;47815.09;4971691;28;20789;-89
2022/11/15 05:06:43;;;;;;;94.70;44.63;;;;;;;-141.97;92.52;47786.25;4961556;28;20192;-88
2022/11/15 05:09:08;;;;;;;78.77;37.23;;;;;;;-141.97;92.55;47782.41;4971623;28;20412;-88
2022/11/15 05:11:33;;;;;;;71.60;34.10;;;;;;;-141.97;92.57;47797.78;4955141;28;20627;-90
2022/11/15 05:13:59;;;;;;;65.17;30.40;;;;;;;-141.97;91.70;47780.47;4957075;29;20173;-89
2022/11/15 05:16:24;;;;;;;62.27;28.10;;;;;;;-141.97;92.01;47759.34;4970447;28;20546;-90
2022/11/15 05:18:53;;;;;;;60.07;28.57;;;;;;;-141.97;91.92;47765.09;4957626;28;20175;-90
2022/11/15 05:21:20;;;;;;;62.33;27.33;;;;;;;-141.97;91.63;47836.22;4974032;28;20230;-89
2022/11/15 05:23:45;;;;;;;56.40;26.20;;;;;;;-141.97;91.25;47803.56;4975809;28;20807;-87
2022/11/15 05:26:11;;;;;;;62.80;28.63;;;;;;;-141.97;90.88;47778.56;4973998;28;20416;-88
2022/11/15 05:28:37;;;;;;;64.57;29.50;;;;;;;-141.97;90.54;47780.47;4957214;28;20179;-86
2022/11/15 05:31:08;;;;;;;69.63;31.93;;;;;;;-141.97;90.17;47888.13;4957645;28;20677;-86
2022/11/15 05:33:37;;;;;;;71.80;33.83;;;;;;;-141.97;89.60;47880.44;4957225;28;20165;-86
2022/11/15 05:36:07;;;;;;;65.97;30.27;;;;;;;-141.97;89.25;47811.25;4988358;28;20179;-86
2022/11/15 05:38:33;;;;;;;78.63;35.80;;;;;;;-141.97;88.40;47815.09;4957817;28;20624;-86
2022/11/15 05:41:00;;;;;;;60.63;28.57;;;;;;;-141.97;88.54;47888.13;4963519;28;20180;-86
2022/11/15 05:43:26;;;;;;;53.37;24.97;;;;;;;-141.97;89.21;47853.53;4974143;28;20190;-86
2022/11/15 05:45:52;;;;;;;66.97;29.83;;;;;;;-141.97;90.00;47882.38;4950598;28;20180;-86
2022/11/15 05:48:18;;;;;;;88.10;39.67;;;;;;;-141.97;89.66;47820.84;4972203;28;20185;-87
2022/11/15 05:50:46;;;;;;;75.50;34.70;;;;;;;-141.97;89.36;47899.66;4954532;28;20664;-86
2022/11/15 05:53:14;;;;;;;63.77;28.97;;;;;;;-141.97;88.60;47651.69;4962261;28;20219;-86
2022/11/15 05:55:41;;;;;;;59.23;27.50;;;;;;;-141.97;88.19;47694.00;4956596;28;20180;-86
2022/11/15 05:58:07;;;;;;;61.40;28.87;;;;;;;-141.97;87.72;47888.13;4974281;28;20181;-85
2022/11/15 06:00:32;;;;;;;58.87;29.53;;;;;;;-141.97;86.96;47842.00;4994808;28;20195;-85
2022/11/15 06:02:58;;;;;;;55.80;26.20;;;;;;;-141.97;86.31;47903.50;4965216;28;20275;-86
2022/11/15 06:05:23;;;;;;;57.90;27.43;;;;;;;-141.97;86.46;47945.81;4972290;28;20272;-86
2022/11/15 06:07:48;;;;;;;58.10;29.97;;;;;;;-141.97;85.97;47859.28;4972286;28;20266;-85
2022/11/15 06:10:14;;;;;;;53.43;27.33;;;;;;;-141.97;85.63;47930.41;4972321;28;20196;-85
2022/11/15 06:12:39;;;;;;;53.27;23.90;;;;;;;-141.97;84.45;47670.91;4972611;28;20180;-86
2022/11/15 06:15:05;;;;;;;50.33;22.27;;;;;;;-141.97;82.69;47722.81;4953385;29;20192;-87
2022/11/15 06:17:33;;;;;;;49.77;24.23;;;;;;;-141.97;82.27;47822.78;4984052;28;20183;-86
2022/11/15 06:19:59;;;;;;;47.67;21.77;;;;;;;-141.97;82.07;47913.13;4976695;28;20203;-86
2022/11/15 06:22:24;;;;;;;45.77;20.43;;;;;;;-141.97;81.57;47792.03;4972215;28;20176;-86
2022/11/15 06:24:49;;;;;;;47.03;21.90;;;;;;;-141.97;82.09;47888.13;4971022;28;20266;-86
2022/11/15 06:27:15;;;;;;;44.13;20.87;;;;;;;-141.97;81.63;47868.91;4969870;28;20214;-86
2022/11/15 06:29:40;;;;;;;43.70;20.80;;;;;;;-141.97;81.80;47738.19;4974124;28;20165;-86
2022/11/15 06:32:06;;;;;;;44.47;23.17;;;;;;;-141.97;81.78;47826.63;4974264;28;20179;-85
2022/11/15 06:34:31;;;;;;;43.67;21.83;;;;;;;-141.97;81.03;47888.13;4988772;28;20179;-88
2022/11/15 06:36:57;;;;;;;44.37;21.80;;;;;;;-141.97;80.16;47774.72;4954909;28;20207;-88
2022/11/15 06:39:22;;;;;;;42.97;21.40;;;;;;;-141.97;79.69;47836.22;4973460;28;20232;-87
2022/11/15 06:41:47;;;;;;;41.00;20.90;;;;;;;-141.97;79.43;47834.31;4963080;28;20318;-88
2022/11/15 06:44:13;;;;;;;48.83;21.07;;;;;;;-141.97;79.03;47832.38;4956095;28;20184;-88
2022/11/15 06:46:38;;;;;;;60.83;27.60;;;;;;;-141.97;78.88;47678.63;4990264;28;20270;-88
2022/11/15 06:49:04;;;;;;;47.33;23.97;;;;;;;-141.97;79.31;47930.41;4962743;28;20192;-88
2022/11/15 06:51:29;;;;;;;42.07;21.27;;;;;;;-141.97;79.48;47876.59;4978718;28;20227;-88
2022/11/15 06:53:55;;;;;;;41.27;21.67;;;;;;;-141.97;79.83;47755.50;4954998;28;20239;-88
2022/11/15 06:56:20;;;;;;;43.33;22.57;;;;;;;-141.97;80.04;47870.81;4965081;28;20187;-88
2022/11/15 06:58:46;;;;;;;48.93;23.23;;;;;;;-141.97;79.95;47782.41;4952726;29;20284;-88
2022/11/15 07:01:12;;;;;;;47.20;23.23;;;;;;;-141.97;79.49;47811.25;4936852;29;20176;-87
2022/11/15 07:03:40;;;;;;;46.23;22.63;;;;;;;-141.97;79.27;47888.13;4960517;28;20641;-88
2022/11/15 07:06:08;;;;;;;41.10;20.80;;;;;;;-141.97;78.23;47805.47;4955822;28;20177;-87
2022/11/15 07:08:34;;;;;;;42.47;20.23;;;;;;;-141.97;78.54;47784.34;4954985;28;20184;-87
2022/11/15 07:11:04;;;;;;;39.77;20.70;;;;;;;-141.97;78.49;47924.66;4954323;28;20719;-88
2022/11/15 07:13:34;;;;;;;42.77;20.63;;;;;;;-141.97;77.64;47788.19;4959030;28;20279;-88
2022/11/15 07:16:08;;;;;;;38.87;20.77;;;;;;;-141.97;76.54;47776.63;4964178;28;20179;-88
2022/11/15 07:18:35;;;;;;;41.13;20.60;;;;;;;-141.97;76.40;47672.84;4955925;28;20172;-88
2022/11/15 07:21:08;;;;;;;39.53;19.73;;;;;;;-141.97;76.20;47713.22;4975569;28;20199;-87
2022/11/15 07:23:37;;;;;;;43.40;20.80;;;;;;;-141.97;76.26;47742.03;4961567;28;20180;-88
2022/11/15 07:26:03;;;;;;;41.50;21.20;;;;;;;-141.97;74.87;47695.91;4953488;29;20267;-88
2022/11/15 07:28:29;;;;;;;43.90;21.73;;;;;;;-141.97;73.91;47717.06;4953688;29;20628;-89
2022/11/15 07:30:54;;;;;;;46.97;23.10;;;;;;;-141.97;72.25;47738.19;4980509;28;20631;-86
2022/11/15 07:33:20;;;;;;;48.47;24.33;;;;;;;-141.97;71.49;47911.19;4948566;28;20180;-87
2022/11/15 07:35:48;;;;;;;39.67;20.87;;;;;;;-141.97;71.76;47657.47;4971234;28;20674;-86
2022/11/15 07:38:15;;;;;;;42.07;21.20;;;;;;;-141.97;72.77;47918.88;4955971;28;20183;-89
2022/11/15 07:40:40;;;;;;;48.43;22.97;;;;;;;-141.97;72.01;47761.25;4973669;28;20683;-87
2022/11/15 07:43:07;;;;;;;68.07;33.13;;;;;;;-141.97;71.37;47865.06;4963571;28;20252;-86
2022/11/15 07:48:46;;;;;;;37.63;18.47;;;;;;;-141.97;71.92;47818.94;4974182;28;20677;-87
2022/11/15 07:51:14;;;;;;;61.57;29.40;;;;;;;-141.97;72.21;47736.28;4972298;28;20239;-89
2022/11/15 07:53:39;;;;;;;47.63;21.20;;;;;;;-141.97;71.04;47903.50;4976186;28;20267;-89
2022/11/15 07:56:12;;;;;;;35.97;17.53;;;;;;;-141.97;70.47;47878.53;4985132;28;20204;-89
2022/11/15 07:58:37;;;;;;;55.27;25.03;;;;;;;-141.97;70.88;47818.94;4955497;29;20169;-87
2022/11/15 08:01:07;;;;;;;53.80;24.83;;;;;;;-141.97;70.35;47711.28;4954507;28;20209;-89
2022/11/15 08:03:33;;;;;;;46.53;22.40;;;;;;;-141.97;69.33;47911.19;4969860;28;20176;-84
2022/11/15 08:05:59;;;;;;;51.63;26.53;;;;;;;-141.97;68.99;47811.25;4966451;28;20176;-84
2022/11/15 08:08:27;;;;;;;62.53;28.70;;;;;;;-141.97;67.70;47826.63;4954353;28;20309;-84
2022/11/15 08:10:52;;;;;;;36.67;17.67;;;;;;;-141.97;66.33;47832.38;4954390;28;20176;-84
2022/11/15 08:13:18;;;;;;;37.33;19.47;;;;;;;-141.97;64.64;47830.47;4966374;28;20181;-78
2022/11/15 08:15:44;;;;;;;32.03;16.90;;;;;;;-141.97;63.50;47745.88;4970032;28;20204;-81
2022/11/15 08:18:15;;;;;;;28.20;14.93;;;;;;;-141.97;62.36;47799.72;4972015;28;20203;-82
2022/11/15 08:20:41;;;;;;;29.27;14.77;;;;;;;-141.97;63.22;47795.88;4960725;28;20715;-84
2022/11/15 08:23:07;;;;;;;31.23;15.97;;;;;;;-141.97;62.71;47805.47;4966250;28;20200;-85
2022/11/15 08:25:34;;;;;;;31.17;16.53;;;;;;;-141.97;62.14;47703.59;4968643;28;20172;-84
2022/11/15 08:28:02;;;;;;;44.17;20.43;;;;;;;-141.97;61.61;47665.16;4982451;28;20216;-80
2022/11/15 08:30:28;;;;;;;48.47;21.80;;;;;;;-141.97;61.22;47661.31;4964522;28;20644;-84
2022/11/15 08:32:56;;;;;;;62.60;28.80;;;;;;;-141.97;62.84;47703.59;4963737;28;20168;-85
2022/11/15 08:35:21;;;;;;;68.03;31.97;;;;;;;-141.97;62.45;47918.88;4963940;28;20216;-85
2022/11/15 08:37:47;;;;;;;71.27;32.03;;;;;;;-141.97;61.06;47849.69;4964610;28;20172;-84
2022/11/15 08:40:13;;;;;;;55.50;27.13;;;;;;;-141.97;60.66;47592.13;4971639;28;20207;-85
2022/11/15 08:42:39;;;;;;;43.17;20.70;;;;;;;-141.97;60.15;47770.88;4970883;28;20176;-83
2022/11/15 08:45:05;;;;;;;95.90;39.13;;;;;;;-141.97;60.35;47768.94;4965397;28;20179;-84
2022/11/15 08:47:31;;;;;;;54.30;25.40;;;;;;;-141.97;59.92;47797.78;4963432;28;20266;-84
2022/11/15 08:49:56;;;;;;;59.80;28.17;;;;;;;-141.97;61.30;47686.31;4958631;28;20181;-84
2022/11/15 08:52:22;;;;;;;41.10;19.90;;;;;;;-141.97;61.33;47801.63;4958878;28;20723;-81
2022/11/15 08:54:47;;;;;;;38.50;19.90;;;;;;;-141.97;62.67;47730.50;4963450;28;20213;-82
2022/11/15 08:57:13;;;;;;;58.30;25.97;;;;;;;-141.97;63.36;47788.19;4962705;28;20195;-82
2022/11/15 08:59:38;;;;;;;48.10;22.57;;;;;;;-141.97;62.49;47784.34;4971866;28;20270;-84
2022/11/15 09:02:05;;;;;;;48.63;22.47;;;;;;;-141.97;61.22;47767.03;4971565;28;20178;-88
2022/11/15 09:04:31;;;;;;;45.30;22.80;;;;;;;-141.97;60.80;47813.16;4956952;28;20192;-83
2022/11/15 09:06:56;;;;;;;48.90;25.00;;;;;;;-141.97;60.38;47767.03;4963503;28;20207;-84
2022/11/15 09:09:22;;;;;;;38.23;20.37;;;;;;;-141.97;58.91;47757.41;4959629;28;20680;-84
2022/11/15 09:11:47;;;;;;;38.17;19.63;;;;;;;-141.97;58.67;47722.81;4968168;28;20177;-85
2022/11/15 09:14:14;;;;;;;40.03;20.60;;;;;;;-141.97;59.12;47797.78;4957645;28;20579;-83
2022/11/15 09:16:39;;;;;;;43.97;22.60;;;;;;;-141.97;60.72;47580.59;4968952;28;20173;-82
2022/11/15 09:19:05;;;;;;;38.57;20.27;;;;;;;-141.97;60.52;47730.50;4955719;29;20181;-82
2022/11/15 09:21:30;;;;;;;35.93;20.13;;;;;;;-141.97;59.74;47826.63;4970060;28;20180;-82
2022/11/15 09:23:56;;;;;;;34.80;17.97;;;;;;;-141.97;57.97;47849.69;4974901;28;20172;-82
2022/11/15 09:26:22;;;;;;;38.37;19.07;;;;;;;-141.97;56.88;47793.94;4972561;28;20260;-83
2022/11/15 09:28:47;;;;;;;36.70;19.37;;;;;;;-141.97;56.65;47688.22;4974927;28;20221;-83
2022/11/15 09:31:13;;;;;;;39.73;20.67;;;;;;;-141.97;56.80;47738.19;4974315;28;20168;-82
2022/11/15 09:33:39;;;;;;;45.13;23.77;;;;;;;-141.97;57.71;47784.34;4974539;28;20242;-83
2022/11/15 09:36:07;;;;;;;45.40;20.93;;;;;;;-141.97;57.40;47724.75;4965574;28;20188;-83
2022/11/15 09:38:33;;;;;;;37.97;19.50;;;;;;;-141.97;56.60;47707.44;4974989;28;20176;-83
2022/11/15 09:41:13;;;;;;;38.10;20.63;;;;;;;-141.97;57.64;47761.25;4973015;28;20196;-80
2022/11/15 09:43:57;;;;;;;38.10;20.50;;;;;;;-141.97;57.82;47761.25;4972441;28;20258;-80
2022/11/15 09:46:34;;;;;;;39.33;20.43;;;;;;;-141.97;57.68;47792.03;4958988;28;20189;-79
2022/11/15 09:49:01;;;;;;;38.13;21.13;;;;;;;-141.97;57.66;47767.03;4983433;28;20184;-79
2022/11/15 09:51:36;;;;;;;37.40;19.83;;;;;;;-141.97;56.73;47749.72;4964384;28;20636;-79
2022/11/15 09:54:01;;;;;;;39.20;20.50;;;;;;;-141.97;56.98;47770.88;4971266;28;20172;-79
2022/11/15 09:56:30;;;;;;;40.07;20.20;;;;;;;-141.97;56.52;47743.97;4967938;28;20187;-79
2022/11/15 09:59:07;;;;;;;38.43;21.17;;;;;;;-141.97;56.98;47799.72;4975336;28;20625;-81
2022/11/15 10:01:41;;;;;;;48.17;26.03;;;;;;;-141.97;56.59;47753.56;4978987;28;20209;-78
2022/11/15 10:04:07;;;;;;;39.00;21.73;;;;;;;-141.97;56.26;47742.03;4981145;28;20194;-81
2022/11/15 10:06:36;;;;;;;41.07;22.00;;;;;;;-141.97;56.14;47751.66;4981213;28;20172;-78
2022/11/15 10:09:12;;;;;;;41.27;22.00;;;;;;;-141.97;56.20;47770.88;4983104;28;20179;-78
2022/11/15 10:11:39;;;;;;;46.13;26.33;;;;;;;-141.97;55.64;47763.19;4983414;28;20186;-78
2022/11/15 10:14:15;;;;;;;51.30;27.33;;;;;;;-141.97;57.96;47753.56;4989828;28;20647;-78
2022/11/15 10:17:00;;;;;;;49.37;27.33;;;;;;;-141.97;59.14;47763.19;4965642;28;20184;-78
2022/11/15 10:19:37;;;;;;;47.03;24.57;;;;;;;-141.97;56.98;47747.81;4967305;28;20262;-78
2022/11/15 10:22:24;;;;;;;37.53;20.57;;;;;;;-141.97;56.07;47763.19;4972790;28;20176;-78
2022/11/15 10:24:52;;;;;;;36.43;20.20;;;;;;;-141.97;55.00;47747.81;4936624;29;20604;-77
2022/11/15 10:27:19;;;;;;;36.10;21.13;;;;;;;-141.97;54.44;47742.03;4973544;28;20184;-77
2022/11/15 10:29:47;;;;;;;38.17;20.53;;;;;;;-141.97;54.01;47768.94;4956853;28;20901;-78
2022/11/15 10:32:15;;;;;;;41.20;20.60;;;;;;;-141.97;53.50;47767.03;4960759;28;20654;-80
2022/11/15 10:34:41;;;;;;;34.50;18.87;;;;;;;-141.97;52.62;47805.47;4954043;29;20176;-79
2022/11/15 10:37:07;;;;;;;35.93;20.40;;;;;;;-141.97;53.01;47761.25;4953780;28;20403;-81
2022/11/15 10:39:35;;;;;;;34.23;20.30;;;;;;;-141.97;53.45;47753.56;4966278;28;20767;-79
2022/11/15 10:42:28;;;;;;;35.27;20.17;;;;;;;-141.97;54.48;47790.09;4954809;29;20629;-84
2022/11/15 10:44:54;;;;;;;34.43;19.70;;;;;;;-141.97;53.39;47768.94;4955080;29;20169;-83
2022/11/15 10:47:30;;;;;;;34.63;20.10;;;;;;;-141.97;52.45;47757.41;4973440;28;20636;-84
2022/11/15 10:50:25;;;;;;;33.53;20.13;;;;;;;-141.97;52.74;47757.41;4973478;28;20270;-77
2022/11/15 10:52:51;;;;;;;33.70;19.37;;;;;;;-141.97;52.83;47740.13;4982976;28;20227;-76
2022/11/15 10:55:16;;;;;;;34.37;20.07;;;;;;;-141.97;52.97;47765.09;4977235;28;20176;-78
2022/11/15 10:57:50;;;;;;;33.90;19.60;;;;;;;-141.97;53.04;47772.78;4975001;28;20184;-78
2022/11/15 11:00:18;;;;;;;34.43;19.93;;;;;;;-141.97;52.49;47751.66;4979653;28;20203;-82
2022/11/15 11:02:56;;;;;;;35.33;20.20;;;;;;;-141.97;52.49;47768.94;4975070;28;20542;-86
2022/11/15 11:05:32;;;;;;;34.40;19.57;;;;;;;-141.97;52.28;47765.09;4955886;28;20219;-82
2022/11/15 11:08:04;;;;;;;34.37;19.70;;;;;;;-141.97;51.61;47738.19;4973783;28;20171;-83
2022/11/15 11:10:31;;;;;;;37.30;20.93;;;;;;;-141.97;52.03;47897.75;4972934;28;20237;-85
2022/11/15 11:13:13;;;;;;;36.17;21.57;;;;;;;-141.97;52.03;47718.97;4973460;28;20549;-85
2022/11/15 11:15:39;;;;;;;38.70;20.50;;;;;;;-141.97;52.53;47749.72;4973315;28;20168;-85
2022/11/15 11:18:19;;;;;;;35.80;21.03;;;;;;;-141.97;51.38;47767.03;4973734;28;20164;-84
2022/11/15 11:21:11;;;;;;;36.63;21.03;;;;;;;-141.97;51.15;47790.09;4972146;28;20580;-84
2022/11/15 11:24:03;;;;;;;36.00;20.87;;;;;;;-141.97;51.74;47717.06;4955761;28;20256;-85
2022/11/15 11:26:45;;;;;;;34.83;21.17;;;;;;;-141.97;51.45;47703.59;4972057;28;20176;-87